Time;durP1;ratioP1;P1;durP2;ratioP2;P2;SDS_P1;SDS_P2;PMS_P1;PMS_P2;Temp;Humidity;BMP_temperature;BMP_pressure;BME280_temperature;BME280_humidity;BME280_pressure;Samples;Min_cycle;Max_cycle;Signal;HPM_P1;HPM_P2
2022/07/27 00:02:09;;;;;;;33.65;31.38;;;;;;;22.65;100.00;100302.91;4987239;28;20054;-81
2022/07/27 00:04:36;;;;;;;37.97;35.78;;;;;;;21.99;100.00;100298.47;4987275;28;20058;-82
2022/07/27 00:07:03;;;;;;;36.42;34.33;;;;;;;22.21;100.00;100300.63;4992823;28;20039;-82
2022/07/27 00:09:30;;;;;;;31.55;29.80;;;;;;;22.23;100.00;100293.81;4991691;28;20053;-81
2022/07/27 00:11:58;;;;;;;36.67;34.58;;;;;;;22.05;100.00;100292.69;4988656;28;20042;-81
2022/07/27 00:14:27;;;;;;;37.67;35.55;;;;;;;22.19;100.00;100290.09;4995578;28;20046;-80
2022/07/27 00:16:54;;;;;;;40.75;38.60;;;;;;;21.97;100.00;100293.38;4984940;28;20578;-81
2022/07/27 00:19:22;;;;;;;38.00;35.65;;;;;;;21.92;100.00;100293.44;4995048;28;20046;-81
2022/07/27 00:21:49;;;;;;;36.55;34.47;;;;;;;22.03;100.00;100294.09;4987743;28;20050;-80
2022/07/27 00:24:16;;;;;;;42.13;39.95;;;;;;;21.68;100.00;100297.00;4986010;28;20050;-82
2022/07/27 00:26:44;;;;;;;41.72;39.53;;;;;;;22.20;100.00;100301.72;4988621;28;20066;-81
2022/07/27 00:29:12;;;;;;;37.40;35.50;;;;;;;21.50;100.00;100301.25;4995108;28;20061;-80
2022/07/27 00:31:40;;;;;;;34.55;32.55;;;;;;;22.07;100.00;100295.13;4989206;28;20058;-80
2022/07/27 00:34:07;;;;;;;33.47;31.55;;;;;;;22.25;100.00;100301.66;4987345;28;20039;-83
2022/07/27 00:36:34;;;;;;;31.73;29.88;;;;;;;22.04;100.00;100309.22;4991856;28;20046;-81
2022/07/27 00:39:02;;;;;;;32.17;30.27;;;;;;;22.10;100.00;100306.16;4990909;28;20057;-81
2022/07/27 00:41:30;;;;;;;39.10;36.88;;;;;;;22.08;100.00;100310.25;4993363;28;20054;-81
2022/07/27 00:44:24;;;;;;;36.15;34.15;;;;;;;21.92;100.00;100307.75;4990054;28;20058;-81
2022/07/27 00:46:52;;;;;;;39.78;37.78;;;;;;;21.83;100.00;100314.91;4992804;28;20553;-81
2022/07/27 00:49:19;;;;;;;38.75;36.63;;;;;;;21.73;100.00;100318.56;4991321;28;20550;-81
2022/07/27 00:51:46;;;;;;;35.20;33.13;;;;;;;21.65;100.00;100318.38;4993153;28;20038;-80
2022/07/27 00:54:19;;;;;;;32.50;30.50;;;;;;;21.57;100.00;100316.31;4995706;28;20050;-80
2022/07/27 00:56:47;;;;;;;33.20;31.30;;;;;;;21.43;100.00;100317.03;4986514;28;20501;-81
2022/07/27 00:59:16;;;;;;;32.88;31.00;;;;;;;21.84;100.00;100313.00;4981428;28;20057;-80
2022/07/27 01:01:43;;;;;;;35.38;33.28;;;;;;;21.77;100.00;100321.47;4982808;28;20058;-80
2022/07/27 01:04:10;;;;;;;35.80;33.65;;;;;;;21.64;100.00;100314.88;4983984;28;20518;-81
2022/07/27 01:06:38;;;;;;;38.83;36.67;;;;;;;21.46;100.00;100305.63;4992311;28;20126;-80
2022/07/27 01:11:52;;;;;;;51.58;48.97;;;;;;;21.41;100.00;100308.41;4968307;28;20057;-82
2022/07/27 01:14:22;;;;;;;37.92;35.92;;;;;;;21.51;100.00;100310.16;4989058;28;20055;-81
2022/07/27 01:16:50;;;;;;;42.85;40.42;;;;;;;20.89;100.00;100298.41;4990420;28;20467;-80
2022/07/27 01:19:17;;;;;;;41.50;39.05;;;;;;;20.20;100.00;100311.84;4985856;28;20073;-82
2022/07/27 01:21:46;;;;;;;39.78;37.58;;;;;;;21.06;100.00;100301.47;4993663;28;20046;-79
2022/07/27 01:24:14;;;;;;;32.55;30.75;;;;;;;21.43;100.00;100302.72;4992271;28;20058;-80
2022/07/27 01:26:41;;;;;;;36.78;34.67;;;;;;;21.27;100.00;100302.03;4990432;28;20047;-80
2022/07/27 01:29:09;;;;;;;41.88;39.47;;;;;;;21.08;100.00;100301.97;4991371;28;20053;-79
2022/07/27 01:31:36;;;;;;;39.25;36.95;;;;;;;21.31;100.00;100308.50;4987177;28;20054;-81
2022/07/27 01:34:05;;;;;;;40.60;38.25;;;;;;;21.24;100.00;100299.91;4987295;28;20483;-80
2022/07/27 01:36:39;;;;;;;38.42;36.20;;;;;;;21.02;100.00;100308.50;4984729;28;20053;-80
2022/07/27 01:39:09;;;;;;;31.70;29.77;;;;;;;20.97;100.00;100298.59;4993219;28;20058;-80
2022/07/27 01:41:36;;;;;;;34.55;32.55;;;;;;;20.85;100.00;100303.56;4993502;28;20046;-82
2022/07/27 01:44:04;;;;;;;39.95;37.78;;;;;;;20.91;100.00;100296.19;4995069;28;20054;-80
2022/07/27 01:46:31;;;;;;;37.58;35.22;;;;;;;21.12;100.00;100300.31;4995377;28;20077;-82
2022/07/27 01:48:58;;;;;;;34.10;32.10;;;;;;;20.96;100.00;100293.47;4993582;28;20043;-82
2022/07/27 01:51:29;;;;;;;33.88;31.73;;;;;;;20.62;100.00;100301.59;4997984;28;20050;-81
2022/07/27 01:53:56;;;;;;;32.50;30.15;;;;;;;20.11;100.00;100308.94;4987205;28;20400;-81
2022/07/27 01:56:24;;;;;;;34.22;31.98;;;;;;;20.68;100.00;100298.56;4993848;28;20144;-82
2022/07/27 01:58:52;;;;;;;36.38;33.83;;;;;;;19.95;100.00;100302.03;4992365;28;20050;-80
2022/07/27 02:01:19;;;;;;;32.97;30.63;;;;;;;20.33;100.00;100300.44;5095965;23;20063;-83
2022/07/27 02:03:46;;;;;;;34.83;31.17;;;;;;;20.16;100.00;100305.41;4974281;28;20105;-83
2022/07/27 02:06:13;;;;;;;36.95;34.47;;;;;;;20.02;100.00;100313.31;4977022;28;20039;-83
2022/07/27 02:08:41;;;;;;;34.95;32.30;;;;;;;20.44;100.00;100313.84;4975886;28;20046;-83
2022/07/27 02:13:54;;;;;;;38.65;36.33;;;;;;;20.75;100.00;100311.72;4972626;28;20053;-83
2022/07/27 02:16:21;;;;;;;38.33;35.83;;;;;;;20.31;100.00;100313.41;4977820;28;20050;-85
2022/07/27 02:18:48;;;;;;;39.15;36.65;;;;;;;20.08;100.00;100309.50;4971211;28;20055;-84
2022/07/27 02:21:17;;;;;;;40.45;37.75;;;;;;;20.49;100.00;100311.94;4974348;28;20054;-83
2022/07/27 02:23:45;;;;;;;39.67;37.17;;;;;;;20.45;100.00;100305.47;4970118;28;20052;-83
2022/07/27 02:26:13;;;;;;;51.30;48.50;;;;;;;20.40;100.00;100310.13;4963843;28;20050;-83
2022/07/27 02:28:44;;;;;;;29.17;26.88;;;;;;;20.63;100.00;100305.91;4973166;28;20043;-83
2022/07/27 02:31:13;;;;;;;37.75;35.50;;;;;;;20.44;100.00;100311.94;4968517;28;20412;-84
2022/07/27 02:33:40;;;;;;;34.50;32.20;;;;;;;20.46;100.00;100303.59;4976460;28;20066;-84
2022/07/27 02:36:07;;;;;;;34.88;32.88;;;;;;;20.47;100.00;100310.59;4974934;28;20062;-82
2022/07/27 02:38:34;;;;;;;35.53;33.22;;;;;;;20.19;100.00;100312.13;4970532;28;20055;-82
2022/07/27 02:41:02;;;;;;;33.00;30.95;;;;;;;20.29;100.00;100307.47;4974239;28;20051;-83
2022/07/27 02:43:30;;;;;;;31.38;29.33;;;;;;;19.92;100.00;100312.56;4973950;28;20849;-84
2022/07/27 02:45:57;;;;;;;32.55;30.35;;;;;;;19.96;100.00;100311.72;4975400;28;20062;-82
2022/07/27 02:48:25;;;;;;;33.00;30.80;;;;;;;20.06;100.00;100311.69;4971978;28;20054;-85
2022/07/27 02:51:00;;;;;;;31.98;29.75;;;;;;;20.08;100.00;100308.69;4974064;28;20078;-82
2022/07/27 02:53:28;;;;;;;31.92;29.63;;;;;;;19.59;100.00;100318.34;4974698;28;20047;-83
2022/07/27 02:55:55;;;;;;;33.67;31.27;;;;;;;20.31;100.00;100323.38;4971943;28;20054;-84
2022/07/27 02:58:22;;;;;;;30.73;28.13;;;;;;;20.18;100.00;100329.38;4970792;28;20047;-83
2022/07/27 03:00:49;;;;;;;30.95;28.85;;;;;;;20.61;100.00;100326.97;4964513;28;20047;-83
2022/07/27 03:03:18;;;;;;;31.42;29.33;;;;;;;20.62;100.00;100323.19;4967208;28;20502;-84
2022/07/27 03:05:47;;;;;;;31.45;29.45;;;;;;;20.58;100.00;100328.34;4974502;28;20545;-85
2022/07/27 03:08:14;;;;;;;29.73;27.73;;;;;;;20.49;100.00;100330.00;4977259;28;20161;-83
2022/07/27 03:10:41;;;;;;;27.98;26.17;;;;;;;20.50;100.00;100326.22;4971753;28;20051;-84
2022/07/27 03:13:08;;;;;;;30.88;28.98;;;;;;;20.71;100.00;100330.38;4966093;28;20051;-84
2022/07/27 03:15:35;;;;;;;30.00;27.92;;;;;;;20.43;100.00;100339.22;4972296;28;20054;-83
2022/07/27 03:18:03;;;;;;;28.30;26.40;;;;;;;19.98;100.00;100336.50;4966307;28;20074;-83
2022/07/27 03:20:32;;;;;;;28.33;26.45;;;;;;;20.57;100.00;100334.81;4970740;28;20047;-82
2022/07/27 03:23:01;;;;;;;27.38;25.70;;;;;;;20.89;100.00;100331.59;4969808;28;20125;-84
2022/07/27 03:25:28;;;;;;;28.98;27.08;;;;;;;20.92;100.00;100336.41;4972414;28;20051;-83
2022/07/27 03:27:55;;;;;;;26.30;24.42;;;;;;;20.88;100.00;100332.69;4973509;28;20057;-82
2022/07/27 03:30:22;;;;;;;25.77;24.05;;;;;;;20.70;100.00;100338.78;4965697;28;20057;-83
2022/07/27 03:32:50;;;;;;;25.55;23.90;;;;;;;21.06;100.00;100347.38;4969586;28;20047;-84
2022/07/27 03:35:16;;;;;;;26.38;24.70;;;;;;;21.23;100.00;100334.22;4968283;28;20050;-84
2022/07/27 03:37:44;;;;;;;27.33;25.52;;;;;;;21.14;100.00;100330.53;4964664;28;20098;-83
2022/07/27 03:40:13;;;;;;;27.17;25.35;;;;;;;21.40;100.00;100336.50;4970900;28;20058;-85
2022/07/27 03:42:41;;;;;;;25.55;23.95;;;;;;;21.57;100.00;100341.44;4969129;28;20043;-82
2022/07/27 03:45:09;;;;;;;27.73;25.52;;;;;;;21.59;100.00;100343.84;4970420;28;20046;-83
2022/07/27 03:47:36;;;;;;;28.30;26.30;;;;;;;21.78;100.00;100330.38;4972588;28;20106;-84
2022/07/27 03:50:04;;;;;;;27.45;25.23;;;;;;;21.77;100.00;100340.38;4965401;28;20047;-84
2022/07/27 03:52:31;;;;;;;28.20;26.33;;;;;;;21.24;100.00;100343.13;4969610;28;20050;-82
2022/07/27 03:54:58;;;;;;;30.23;26.92;;;;;;;21.85;100.00;100350.56;4969752;28;20051;-82
2022/07/27 03:57:26;;;;;;;29.52;27.40;;;;;;;21.80;100.00;100358.72;4972448;28;20042;-83
2022/07/27 03:59:54;;;;;;;27.52;25.80;;;;;;;22.02;100.00;100358.19;4974575;28;20053;-83
2022/07/27 04:02:21;;;;;;;27.30;25.50;;;;;;;22.05;100.00;100373.81;4974630;28;20058;-84
2022/07/27 04:04:48;;;;;;;25.23;23.45;;;;;;;22.50;100.00;100359.97;4968492;28;20428;-83
2022/07/27 04:07:15;;;;;;;26.48;24.75;;;;;;;22.62;100.00;100371.94;4973411;28;20051;-82
2022/07/27 04:09:43;;;;;;;25.85;24.05;;;;;;;22.92;100.00;100374.47;4972714;28;20475;-84
2022/07/27 04:12:10;;;;;;;26.55;24.23;;;;;;;22.87;100.00;100361.81;4968429;28;20051;-83
2022/07/27 04:14:38;;;;;;;26.83;24.80;;;;;;;22.83;100.00;100369.72;4965302;28;20070;-83
2022/07/27 04:17:06;;;;;;;26.23;24.52;;;;;;;22.79;100.00;100378.75;4973326;28;20054;-84
2022/07/27 04:19:33;;;;;;;26.50;24.80;;;;;;;22.64;100.00;100374.38;4965018;28;20053;-82
2022/07/27 04:22:00;;;;;;;24.40;22.90;;;;;;;22.74;100.00;100376.09;4966361;28;20133;-82
2022/07/27 04:24:29;;;;;;;24.17;22.50;;;;;;;22.81;100.00;100365.69;4963663;28;20475;-83
2022/07/27 04:26:56;;;;;;;24.10;22.50;;;;;;;22.88;100.00;100362.63;4968274;28;20168;-83
2022/07/27 04:29:24;;;;;;;24.77;23.08;;;;;;;23.09;100.00;100369.31;4968660;28;20055;-83
2022/07/27 04:31:52;;;;;;;25.35;23.58;;;;;;;25.04;100.00;100363.25;4965257;28;20062;-81
2022/07/27 04:34:19;;;;;;;26.10;24.05;;;;;;;26.81;100.00;100357.56;4970557;28;20047;-80
2022/07/27 04:36:45;;;;;;;24.20;22.50;;;;;;;24.98;100.00;100365.31;4963749;28;20055;-80
2022/07/27 04:39:12;;;;;;;23.77;22.08;;;;;;;23.95;100.00;100364.16;4963075;28;20068;-78
2022/07/27 04:41:39;;;;;;;23.70;22.00;;;;;;;23.75;100.00;100361.84;4962317;28;20058;-80
2022/07/27 04:44:06;;;;;;;24.13;22.15;;;;;;;23.75;100.00;100365.38;4960225;28;20061;-78
2022/07/27 04:46:33;;;;;;;23.17;21.58;;;;;;;23.96;100.00;100363.06;4966552;28;20054;-79
2022/07/27 04:49:01;;;;;;;24.60;22.70;;;;;;;23.93;100.00;100366.38;4964668;28;20054;-78
2022/07/27 04:51:28;;;;;;;24.02;22.25;;;;;;;23.72;100.00;100382.25;4965841;28;20063;-78
2022/07/27 04:53:55;;;;;;;24.77;23.02;;;;;;;23.97;100.00;100380.94;4970248;28;20054;-80
2022/07/27 04:56:21;;;;;;;24.70;22.80;;;;;;;24.03;100.00;100381.63;4969866;28;20051;-80
2022/07/27 04:58:48;;;;;;;25.00;23.15;;;;;;;24.23;100.00;100373.03;4966928;28;20062;-79
2022/07/27 05:01:15;;;;;;;23.25;21.80;;;;;;;24.20;100.00;100378.25;4965255;28;20440;-78
2022/07/27 05:03:42;;;;;;;22.17;20.77;;;;;;;24.43;100.00;100385.38;4963487;28;20048;-78
2022/07/27 05:06:10;;;;;;;24.02;22.30;;;;;;;24.59;100.00;100379.59;4962407;28;20423;-80
2022/07/27 05:08:37;;;;;;;23.10;21.40;;;;;;;24.61;100.00;100382.81;4970918;28;20048;-80
2022/07/27 05:11:04;;;;;;;24.02;22.42;;;;;;;24.80;100.00;100388.84;4962804;28;20122;-81
2022/07/27 05:13:31;;;;;;;24.02;22.38;;;;;;;25.56;100.00;100394.22;4969641;28;20113;-82
2022/07/27 05:15:57;;;;;;;23.63;22.15;;;;;;;25.74;100.00;100397.81;4964624;28;20051;-80
2022/07/27 05:18:25;;;;;;;23.17;21.60;;;;;;;25.30;100.00;100394.13;4960378;28;20422;-80
2022/07/27 05:20:52;;;;;;;23.60;22.02;;;;;;;25.32;100.00;100410.91;4966183;28;20472;-82
2022/07/27 05:23:20;;;;;;;23.38;21.80;;;;;;;25.32;100.00;100410.91;4966376;28;20389;-80
2022/07/27 05:25:47;;;;;;;24.63;23.08;;;;;;;25.67;100.00;100400.19;4961538;28;20392;-79
2022/07/27 05:28:14;;;;;;;24.42;22.73;;;;;;;25.83;100.00;100416.09;4961939;28;20051;-78
2022/07/27 05:30:40;;;;;;;22.75;21.20;;;;;;;25.77;100.00;100407.25;4962970;28;20048;-81
2022/07/27 05:33:07;;;;;;;23.27;21.77;;;;;;;26.03;100.00;100407.38;4962572;28;20043;-78
2022/07/27 05:35:34;;;;;;;25.98;22.50;;;;;;;26.11;100.00;100397.59;4967296;28;20106;-80
2022/07/27 05:38:02;;;;;;;25.02;23.33;;;;;;;26.05;100.00;100410.56;4963330;28;20078;-79
2022/07/27 05:40:31;;;;;;;24.90;23.20;;;;;;;26.15;100.00;100412.19;4966194;28;20059;-82
2022/07/27 05:42:59;;;;;;;24.73;23.02;;;;;;;26.24;100.00;100407.56;4958962;28;20142;-80
2022/07/27 05:45:27;;;;;;;24.10;22.40;;;;;;;26.39;100.00;100417.19;4960057;28;20050;-80
2022/07/27 05:47:56;;;;;;;24.50;22.92;;;;;;;26.68;100.00;100413.84;4961379;28;20051;-80
2022/07/27 05:50:23;;;;;;;24.60;23.00;;;;;;;26.55;100.00;100420.25;4964091;28;20376;-80
2022/07/27 05:52:51;;;;;;;24.40;22.55;;;;;;;26.41;100.00;100414.94;4962935;28;20475;-77
2022/07/27 05:55:18;;;;;;;22.77;21.17;;;;;;;26.94;100.00;100400.19;4965232;28;20054;-80
2022/07/27 05:57:46;;;;;;;23.70;22.05;;;;;;;27.43;100.00;100414.34;4966426;28;20057;-81
2022/07/27 06:00:13;;;;;;;25.55;23.13;;;;;;;27.44;100.00;100409.69;4963561;28;20050;-80
2022/07/27 06:02:40;;;;;;;24.15;22.45;;;;;;;27.77;100.00;100399.75;4959864;28;20043;-78
2022/07/27 06:05:08;;;;;;;24.58;22.63;;;;;;;27.85;100.00;100400.88;4967405;28;20061;-81
2022/07/27 06:10:19;;;;;;;25.58;23.88;;;;;;;28.30;100.00;100405.72;4966021;28;20054;-78
2022/07/27 06:12:48;;;;;;;25.90;24.20;;;;;;;28.72;96.55;100411.19;4964813;28;20054;-81
2022/07/27 06:15:18;;;;;;;26.95;25.15;;;;;;;28.75;88.55;100402.31;4965452;28;20051;-79
2022/07/27 06:17:47;;;;;;;27.55;25.65;;;;;;;28.93;91.64;100398.28;4968552;28;20054;-82
2022/07/27 06:20:15;;;;;;;28.25;26.15;;;;;;;29.17;84.96;100405.00;4964369;28;20051;-81
2022/07/27 06:22:48;;;;;;;29.20;27.30;;;;;;;29.21;78.81;100412.16;4959899;28;20063;-81
2022/07/27 06:25:15;;;;;;;28.00;26.20;;;;;;;29.01;79.39;100402.06;4967793;28;20058;-78
2022/07/27 06:27:43;;;;;;;27.27;25.35;;;;;;;29.19;82.24;100397.22;4965477;28;20047;-83
2022/07/27 06:30:13;;;;;;;28.25;26.02;;;;;;;29.12;77.67;100400.53;4968093;28;20059;-78
2022/07/27 06:32:40;;;;;;;28.48;26.58;;;;;;;28.84;79.78;100411.25;4972893;28;20078;-81
2022/07/27 06:35:08;;;;;;;28.92;26.92;;;;;;;29.04;80.31;100417.00;4971274;28;20051;-80
2022/07/27 06:37:35;;;;;;;29.73;27.65;;;;;;;29.33;79.84;100416.84;4973194;28;20062;-78
2022/07/27 06:40:04;;;;;;;27.67;25.77;;;;;;;29.27;73.51;100415.47;4971219;28;20470;-80
2022/07/27 06:42:31;;;;;;;29.63;27.63;;;;;;;29.57;84.68;100412.56;4966508;28;20050;-79
2022/07/27 06:44:58;;;;;;;28.58;26.67;;;;;;;29.65;76.88;100412.47;4965372;28;20054;-78
2022/07/27 06:47:26;;;;;;;28.50;26.40;;;;;;;29.61;81.63;100418.94;4968351;28;20121;-80
2022/07/27 06:49:53;;;;;;;31.65;29.35;;;;;;;29.75;70.41;100419.44;4968857;28;20047;-78
2022/07/27 06:52:20;;;;;;;29.75;27.55;;;;;;;29.68;71.45;100416.44;4971597;28;20055;-79
2022/07/27 06:54:46;;;;;;;31.08;28.98;;;;;;;29.67;68.06;100423.84;4968559;28;20126;-78
2022/07/27 06:57:14;;;;;;;28.77;26.90;;;;;;;29.70;67.57;100418.84;4970506;28;20058;-78
2022/07/27 06:59:41;;;;;;;27.70;25.70;;;;;;;29.66;65.79;100424.22;4966766;28;20488;-80
2022/07/27 07:02:08;;;;;;;28.70;26.60;;;;;;;29.93;58.61;100419.19;4964706;28;20507;-79
2022/07/27 07:04:36;;;;;;;28.55;26.65;;;;;;;30.32;58.03;100421.19;4969416;28;20439;-82
2022/07/27 07:07:03;;;;;;;27.33;25.42;;;;;;;30.30;63.29;100420.75;4964188;28;20051;-80
2022/07/27 07:09:30;;;;;;;26.65;24.63;;;;;;;30.10;61.89;100425.19;4964231;28;20055;-78
2022/07/27 07:11:57;;;;;;;28.73;26.40;;;;;;;30.05;58.51;100422.72;4966433;28;20066;-78
2022/07/27 07:14:25;;;;;;;27.63;25.42;;;;;;;30.31;64.87;100421.53;4970761;28;20100;-81
2022/07/27 07:16:52;;;;;;;29.80;27.70;;;;;;;30.63;57.08;100416.19;4970036;28;20062;-80
2022/07/27 07:19:19;;;;;;;29.45;27.35;;;;;;;30.77;59.19;100419.31;4972265;28;20404;-81
2022/07/27 07:21:47;;;;;;;30.30;28.02;;;;;;;30.79;56.84;100420.59;4966855;28;20105;-81
2022/07/27 07:24:14;;;;;;;29.85;27.65;;;;;;;30.88;55.50;100420.44;4965510;28;20058;-80
2022/07/27 07:26:41;;;;;;;29.13;27.02;;;;;;;30.82;54.46;100419.09;4963475;28;20113;-80
2022/07/27 07:29:08;;;;;;;28.40;26.40;;;;;;;30.78;61.14;100424.50;4966379;28;20055;-78
2022/07/27 07:31:36;;;;;;;29.23;27.02;;;;;;;31.01;54.43;100421.97;4968893;28;20139;-79
2022/07/27 07:34:04;;;;;;;29.98;27.80;;;;;;;31.35;56.41;100421.66;4962152;28;20083;-79
2022/07/27 07:36:30;;;;;;;31.15;28.95;;;;;;;30.98;55.64;100428.16;4968417;28;20051;-78
2022/07/27 07:38:59;;;;;;;30.20;28.08;;;;;;;31.17;59.74;100432.97;4963997;28;20395;-79
2022/07/27 07:41:26;;;;;;;30.17;28.08;;;;;;;30.89;63.00;100427.50;4971090;28;20114;-81
2022/07/27 07:43:53;;;;;;;29.90;27.80;;;;;;;31.02;55.91;100431.00;4966657;28;20057;-80
2022/07/27 07:46:20;;;;;;;30.52;28.42;;;;;;;31.02;57.25;100437.28;4969544;28;20471;-80
2022/07/27 07:48:47;;;;;;;28.80;26.90;;;;;;;31.14;56.01;100439.16;4965842;28;20070;-81
2022/07/27 07:51:14;;;;;;;29.73;27.58;;;;;;;31.65;51.38;100433.81;4971239;28;20059;-83
2022/07/27 07:53:40;;;;;;;30.20;28.15;;;;;;;31.76;48.97;100430.53;4964527;28;20059;-79
2022/07/27 07:56:09;;;;;;;30.33;28.13;;;;;;;31.88;49.29;100435.91;4963421;28;20057;-79
2022/07/27 07:58:36;;;;;;;28.67;26.67;;;;;;;31.90;49.96;100436.38;4963927;28;20047;-79
2022/07/27 08:01:02;;;;;;;30.50;28.25;;;;;;;31.23;50.70;100425.28;4965456;28;20058;-78
2022/07/27 08:03:29;;;;;;;31.27;29.08;;;;;;;31.41;53.85;100420.28;4966259;28;20051;-77
2022/07/27 08:05:56;;;;;;;32.83;30.63;;;;;;;31.66;51.07;100429.91;4966230;28;20055;-78
2022/07/27 08:08:23;;;;;;;33.63;31.42;;;;;;;31.82;54.16;100424.38;4961621;28;20051;-78
2022/07/27 08:10:50;;;;;;;35.40;33.20;;;;;;;32.03;53.73;100423.31;4965364;28;20039;-82
2022/07/27 08:13:18;;;;;;;31.88;29.75;;;;;;;32.21;50.46;100427.25;4966117;28;20051;-79
2022/07/27 08:15:45;;;;;;;31.15;29.08;;;;;;;32.04;49.86;100424.91;4967721;28;20105;-78
2022/07/27 08:18:12;;;;;;;29.60;27.60;;;;;;;32.14;50.18;100425.16;4962732;28;20047;-80
2022/07/27 08:20:39;;;;;;;29.83;27.92;;;;;;;31.91;51.97;100416.78;4970490;28;20046;-80
2022/07/27 08:23:06;;;;;;;29.35;27.45;;;;;;;32.76;49.23;100408.78;4966940;28;20043;-81
2022/07/27 08:25:33;;;;;;;30.50;28.50;;;;;;;32.14;55.47;100413.38;4966557;28;20058;-81
2022/07/27 08:28:00;;;;;;;29.17;27.23;;;;;;;32.71;51.99;100411.84;4967505;28;20038;-80
2022/07/27 08:30:28;;;;;;;28.83;27.02;;;;;;;32.54;54.00;100415.81;4967425;28;20503;-77
2022/07/27 08:32:58;;;;;;;29.10;27.30;;;;;;;32.55;52.35;100417.38;4968405;28;20135;-78
2022/07/27 08:35:25;;;;;;;31.98;30.02;;;;;;;32.42;52.42;100423.38;4964488;28;20456;-81
2022/07/27 08:37:52;;;;;;;31.77;29.98;;;;;;;32.90;46.19;100416.50;4960016;28;20047;-80
2022/07/27 08:40:19;;;;;;;30.65;28.67;;;;;;;32.97;48.55;100419.38;4963953;28;20099;-80
2022/07/27 08:42:47;;;;;;;32.08;30.08;;;;;;;33.40;44.01;100424.84;4968820;28;20062;-77
2022/07/27 08:45:15;;;;;;;29.58;27.45;;;;;;;33.21;44.44;100412.75;4965932;28;20064;-78
2022/07/27 08:47:45;;;;;;;31.55;29.65;;;;;;;33.50;45.05;100408.56;4960580;28;20066;-78
2022/07/27 08:50:26;;;;;;;32.17;30.17;;;;;;;32.98;46.20;100412.75;4965197;28;20146;-80
2022/07/27 08:53:02;;;;;;;31.00;28.80;;;;;;;33.10;45.79;100410.97;4962081;28;20047;-78
2022/07/27 08:55:30;;;;;;;32.22;30.10;;;;;;;33.26;43.18;100409.72;4970710;28;20050;-77
2022/07/27 08:57:57;;;;;;;32.45;30.35;;;;;;;33.12;41.72;100411.41;4968861;28;20051;-78
2022/07/27 09:00:24;;;;;;;29.13;27.13;;;;;;;32.99;49.07;100417.09;4960371;28;20134;-78
2022/07/27 09:02:53;;;;;;;27.98;26.08;;;;;;;33.32;41.64;100417.66;4963323;28;20475;-80
2022/07/27 09:05:20;;;;;;;29.50;27.50;;;;;;;33.39;41.32;100413.06;4966398;28;20554;-79
2022/07/27 09:07:47;;;;;;;28.40;26.30;;;;;;;33.40;46.34;100411.88;4960882;28;20047;-78
2022/07/27 09:10:29;;;;;;;29.13;27.13;;;;;;;34.05;44.31;100407.44;4968468;28;20051;-79
2022/07/27 09:12:55;;;;;;;29.27;27.17;;;;;;;34.06;44.38;100414.50;4968865;28;20051;-80
2022/07/27 09:15:22;;;;;;;28.33;26.23;;;;;;;32.76;48.67;100408.78;4962617;28;20066;-78
2022/07/27 09:17:49;;;;;;;27.05;25.05;;;;;;;32.05;53.79;100416.31;4968684;28;20505;-79
2022/07/27 09:20:20;;;;;;;28.20;26.20;;;;;;;32.86;51.40;100410.13;4964954;28;20047;-78
2022/07/27 09:22:49;;;;;;;28.35;26.35;;;;;;;32.19;53.99;100409.53;4963583;28;20057;-79
2022/07/27 09:25:18;;;;;;;27.77;25.95;;;;;;;32.97;49.90;100404.84;4965843;28;20123;-82
2022/07/27 09:27:47;;;;;;;29.58;27.48;;;;;;;32.42;53.93;100409.63;4962003;28;20059;-83
2022/07/27 09:30:16;;;;;;;28.60;26.60;;;;;;;33.02;48.19;100405.38;4964359;28;20043;-80
2022/07/27 09:32:53;;;;;;;28.33;26.33;;;;;;;33.15;46.22;100402.44;4964761;28;20047;-81
2022/07/27 09:35:25;;;;;;;28.70;26.70;;;;;;;33.99;45.59;100409.69;4967009;28;20050;-79
2022/07/27 09:37:53;;;;;;;28.67;26.55;;;;;;;33.41;47.95;100410.75;4963957;28;20047;-80
2022/07/27 09:40:22;;;;;;;28.70;26.70;;;;;;;33.93;41.13;100405.66;4967046;28;20055;-82
2022/07/27 09:43:08;;;;;;;29.95;27.95;;;;;;;35.18;37.99;100403.63;4964973;28;20051;-80
2022/07/27 09:45:36;;;;;;;31.20;29.00;;;;;;;34.91;43.11;100402.94;4968486;28;20102;-82
2022/07/27 09:48:15;;;;;;;31.48;29.20;;;;;;;34.95;41.79;100395.47;4967272;28;20066;-81
2022/07/27 09:50:45;;;;;;;29.92;27.73;;;;;;;35.24;36.42;100402.09;4963826;28;20102;-79
2022/07/27 09:53:13;;;;;;;30.40;28.30;;;;;;;35.12;37.20;100389.38;4966295;28;20061;-83
2022/07/27 09:55:41;;;;;;;30.17;27.98;;;;;;;34.55;43.41;100388.78;4964224;28;20058;-79
2022/07/27 09:58:08;;;;;;;30.85;28.83;;;;;;;33.83;45.35;100389.75;4969854;28;20055;-82
2022/07/27 10:00:35;;;;;;;30.33;27.98;;;;;;;33.92;40.01;100393.03;4966498;28;20474;-79
2022/07/27 10:03:02;;;;;;;29.00;26.88;;;;;;;33.94;44.40;100383.22;4965039;28;20051;-80
2022/07/27 10:05:29;;;;;;;30.77;28.50;;;;;;;34.63;41.83;100376.66;4968303;28;20063;-81
2022/07/27 10:07:58;;;;;;;28.17;26.02;;;;;;;35.30;39.31;100389.53;4971517;28;20050;-81
2022/07/27 10:10:25;;;;;;;27.60;25.60;;;;;;;34.75;39.27;100381.91;4970127;28;20467;-80
2022/07/27 10:12:52;;;;;;;30.90;28.80;;;;;;;35.65;37.56;100385.50;4972168;28;20043;-81
2022/07/27 10:15:19;;;;;;;28.95;27.05;;;;;;;35.22;40.95;100385.94;4970404;28;20175;-80
2022/07/27 10:17:48;;;;;;;29.48;27.48;;;;;;;34.41;43.91;100381.13;4970515;28;20051;-79
2022/07/27 10:20:18;;;;;;;29.98;27.48;;;;;;;34.87;41.85;100380.84;4972206;28;20047;-81
2022/07/27 10:22:55;;;;;;;28.83;26.77;;;;;;;35.06;39.20;100369.63;4967561;28;20061;-83
2022/07/27 10:25:25;;;;;;;30.50;27.33;;;;;;;33.79;45.41;100375.94;4973911;28;20141;-78
2022/07/27 10:28:08;;;;;;;28.00;26.00;;;;;;;34.58;42.94;100371.47;4971371;28;20050;-81
2022/07/27 10:30:36;;;;;;;28.13;26.13;;;;;;;34.29;43.53;100371.13;4966383;28;20051;-82
2022/07/27 10:33:12;;;;;;;29.08;26.88;;;;;;;34.09;44.66;100375.19;4971577;28;20058;-79
2022/07/27 10:35:40;;;;;;;27.55;25.55;;;;;;;34.30;43.02;100374.69;4965450;28;20491;-79
2022/07/27 10:38:10;;;;;;;26.50;24.65;;;;;;;35.07;39.25;100373.16;4968744;28;20058;-79
2022/07/27 10:40:39;;;;;;;28.80;26.83;;;;;;;34.05;43.94;100364.13;4969076;28;20456;-79
2022/07/27 10:43:10;;;;;;;29.92;27.92;;;;;;;34.65;43.48;100363.28;4969111;28;20443;-81
2022/07/27 10:45:45;;;;;;;29.42;27.42;;;;;;;34.79;39.26;100366.19;4963271;28;20395;-79
2022/07/27 10:48:37;;;;;;;27.85;25.85;;;;;;;35.68;36.51;100362.63;4969935;28;20376;-80
2022/07/27 10:51:05;;;;;;;28.15;26.25;;;;;;;35.95;37.88;100361.19;4966105;28;20459;-79
2022/07/27 10:53:34;;;;;;;30.40;28.13;;;;;;;36.20;35.70;100355.00;4966774;28;20051;-78
2022/07/27 10:56:05;;;;;;;30.10;27.70;;;;;;;33.85;44.22;100355.19;4966663;28;20047;-82
2022/07/27 10:58:46;;;;;;;30.15;27.92;;;;;;;35.50;35.77;100351.44;4968986;28;20419;-78
2022/07/27 11:01:17;;;;;;;27.55;25.35;;;;;;;35.91;34.94;100349.31;4966501;28;20065;-81
2022/07/27 11:03:58;;;;;;;27.60;25.60;;;;;;;35.93;35.39;100354.47;4972713;28;20529;-79
2022/07/27 11:06:31;;;;;;;29.33;26.63;;;;;;;35.40;34.45;100347.41;4965951;28;20062;-81
2022/07/27 11:09:00;;;;;;;26.75;24.65;;;;;;;35.92;32.98;100344.59;4963018;28;20070;-78
2022/07/27 11:11:33;;;;;;;26.42;24.42;;;;;;;37.00;30.89;100343.75;4973349;28;20463;-81
2022/07/27 11:14:00;;;;;;;29.10;26.95;;;;;;;37.84;28.89;100342.47;4966644;28;20141;-80
2022/07/27 11:16:29;;;;;;;27.98;25.98;;;;;;;36.82;36.62;100338.19;4963009;28;20043;-81
2022/07/27 11:19:02;;;;;;;26.05;24.10;;;;;;;37.28;31.38;100345.75;4969714;28;20051;-79